Arabela, New Mexico
Current Conditions -  °F | °C
As of 11:15 AM on Thursday 23 Oct 2014 (Local Time) from KROW Reporting Station
Haze Haze  
Wind Chill: 17°   Ceiling: Unl
Heat Index: 17°   Visibility: 6mi
Dew Point: 14°   Wind: 3mph
Humidity: 81%   Direction: NA
Pressure: 30.19"   Gusts: NA
Location:  33.282°N, 105.13°W
Report Text: KROW 231715Z VRB03KT 6SM HZ SCT006 17/14 A3019 RMK AO2 T01720139
Loading
Personal Weather Stations






























Interactive Weather Map
Tropical Storm Tracking
New forecast layout! Learn more

10-Day Weather Forecast

Advertisements
Track Severe Weather on mobile